Accueil
METAR-TAF:

METAR-TAF

Aéroports :

Djeddah, Arabie saoudite

Aéroport international Roi-Abdelaziz

latitude: 21-42N, longitude: 039-11E, altitude: 15 m

Observation

Le bulletin a été fait il y a 39 minutes, à 04:00 UTC
Vent calme
Température 21°C
Humidité 46%
Pression 1017 hPa
Visibilité 10 km ou plus
pas de nuages en-dessous de 1500 mètres et pas de cumulonimbus.

METAR: OEJN 120400Z 00000KT CAVOK 21/09 Q1017 NOSIG

Heure: 07:39 (04:39 UTC)

Prévision

Le bulletin a été fait il y a 5 heures et 39 minutes, à 23:00 UTC
Prévision valable du 12 à 00 UTC au 13 à 06 UTC
Vent 3 kt de direction variable
Visibilité 10 km ou plus
pas de nuages en-dessous de 1500 mètres et pas de cumulonimbus.
Evoluant progressivement
du 12 à 09 UTC au 12 à 11 UTC
Vent 10 kt de ouest/sud-ouest

TAF: OEJN 112300Z 1200/1306 VRB03KT CAVOK BECMG 1209/1211 24010KT

Observations et prévisions météorologiques de plus de 4000 aéroports (messages METAR et TAF).

Les stations disponibles sont représentées par des disques jaunes et rouges sur la carte.

Passer la souris dessus pour voir le nom de la station.

Cliquer dessus pour voir les observations et prévisions météorologiques.

Pour changer de carte: cliquez sur les boutons verts avec une croix noire pour zoomer, sur le bouton vert avec un tiret pour effectuer un zoom arrière, ou sur les flèches vertes pour les cartes adjacentes.


METAR-TAF: